Flight Track Log - Related Links

Times and Time Zones

All times are in EDT time to prevent confusion due to time zone crossing. See the N53RH flight status page for this flight to view local times or setup timezone preferences in your user account.

Time Position Orientation Groundspeed Altitude Reporting Facility
EDT Latitude Longitude Course Direction KTS MPH feet Rate Location/Type
Fri 12:15:11 PM 34.1767 -86.2861 189° South 87 100 3,000  Level Atlanta Center
Fri 12:16:06 PM 34.1536 -86.2906 198° South 88 101 3,600 656 Climbing Atlanta Center
Fri 12:17:19 PM 34.1242 -86.3022 197° South 92 106 4,400 691 Climbing Atlanta Center
Fri 12:18:25 PM 34.0925 -86.3139 197° South 98 113 5,200 661 Climbing Atlanta Center
Fri 12:19:26 PM 34.0675 -86.3233 193° South 99 114 5,800 569 Climbing Atlanta Center
Fri 12:20:21 PM 34.0422 -86.3303 198° South 100 115 6,300 574 Climbing Atlanta Center
Fri 12:21:21 PM 34.0128 -86.3419 196° South 102 117 6,900 496 Climbing Atlanta Center
Fri 12:22:22 PM 33.9856 -86.3511 205° Southwest 105 121 7,300 404 Climbing Atlanta Center
Fri 12:23:05 PM 33.9644 -86.3631 193° South 107 123 7,600 347 Climbing Atlanta Center
Fri 12:24:23 PM 33.9244 -86.3744 200° South 118 136 8,000 173 Climbing Atlanta Center
Fri 12:25:24 PM 33.8867 -86.3911 198° South 149 171 8,000  Level Atlanta Center
Fri 12:26:24 PM 33.8444 -86.4072 197° South 156 180 8,000  Level Atlanta Center
Fri 12:27:25 PM 33.8003 -86.4236 195° South 158 182 8,000  Level Atlanta Center
Fri 12:28:26 PM 33.7583 -86.4375 193° South 156 180 8,000  Level Atlanta Center
Fri 12:29:32 PM 33.7100 -86.4511 192° South 163 188 8,000  Level Atlanta Center
Fri 12:30:21 PM 33.6744 -86.4600 198° South 162 186 8,000  Level Atlanta Center
Fri 12:31:15 PM 33.6386 -86.4742 199° South 159 183 8,000  Level Atlanta Center
Fri 12:32:16 PM 33.5925 -86.4928 196° South 160 184 8,000  Level Atlanta Center
Fri 12:33:23 PM 33.5461 -86.5089 197° South 159 183 8,000  Level Atlanta Center
Fri 12:33:59 PM 33.5208 -86.5181 199° South 159 183 8,000  Level Atlanta Center
Fri 12:35:18 PM 33.4642 -86.5414 195° South 158 182 8,000  Level Atlanta Center
Fri 12:36:19 PM 33.4222 -86.5550 199° South 158 182 8,000  Level Atlanta Center
Fri 12:37:25 PM 33.3778 -86.5736 201° Southwest 158 182 8,000  Level Atlanta Center
Fri 12:38:26 PM 33.3358 -86.5925 191° South 156 180 8,000  Level Atlanta Center
Fri 12:39:20 PM 33.2981 -86.6011 199° South 158 182 8,000  Level Atlanta Center
Fri 12:40:27 PM 33.2475 -86.6219 195° South 157 181 8,000  Level Atlanta Center
Fri 12:41:29 PM 33.2056 -86.6358 197° South 160 184 8,000  Level Atlanta Center
Fri 01:02:05 PM 32.3489 -86.9547 195° South 174 200 8,000  Level Atlanta Center
Fri 01:03:05 PM 32.3067 -86.9681 196° South 164 189 8,000  Level Atlanta Center
Fri 01:04:04 PM 32.2667 -86.9817 195° South 164 189 8,000  Level Atlanta Center
Fri 01:05:04 PM 32.2247 -86.9950 196° South 164 189 8,000  Level Atlanta Center
Fri 01:06:04 PM 32.1847 -87.0083 198° South 164 189 8,000  Level Atlanta Center
Fri 01:07:04 PM 32.1425 -87.0242 196° South 164 189 8,000  Level Atlanta Center
Fri 01:08:04 PM 32.1025 -87.0375 195° South 157 181 8,000  Level Atlanta Center
Fri 01:09:04 PM 32.0606 -87.0508 197° South 157 181 8,000  Level Atlanta Center
Fri 01:10:05 PM 32.0228 -87.0642 200° South 157 181 8,000  Level Atlanta Center
Fri 01:11:04 PM 31.9806 -87.0822 192° South 152 175 8,000  Level Atlanta Center
Fri 01:12:04 PM 31.9383 -87.0931 198° South 152 175 8,000  Level Atlanta Center
Fri 01:13:04 PM 31.9028 -87.1067 197° South 152 175 8,000  Level Atlanta Center
Fri 01:14:05 PM 31.8606 -87.1222 202° Southwest 152 175 8,000  Level Atlanta Center
Fri 01:15:05 PM 31.8225 -87.1406 193° South 152 175 8,000  Level Atlanta Center
Fri 01:16:04 PM 31.7761 -87.1536 196° South 152 175 8,000  Level Atlanta Center
Fri 01:17:04 PM 31.7364 -87.1669 198° South 157 181 8,000  Level Atlanta Center
Fri 01:18:04 PM 31.6961 -87.1825 199° South 157 181 8,000  Level Atlanta Center
Fri 01:19:04 PM 31.6561 -87.1983 194° South 157 181 8,000 -32 Level Atlanta Center
Fri 01:21:09 PM 31.5622 -87.2250 202° Southwest 160 184 7,900 -32 Descending Jacksonville Center
Fri 01:22:09 PM 31.5242 -87.2428 202° Southwest 160 184 7,900 50 Level Jacksonville Center
Fri 01:23:09 PM 31.4858 -87.2606 198° South 160 184 8,000 50 Climbing Jacksonville Center
Fri 01:24:10 PM 31.4456 -87.2756 195° South 154 177 8,000  Level Jacksonville Center
Fri 01:25:10 PM 31.4056 -87.2883 200° South 154 177 8,000  Level Jacksonville Center
Fri 01:26:10 PM 31.3653 -87.3058 198° South 154 177 8,000  Level Jacksonville Center
Fri 01:27:10 PM 31.3250 -87.3208 198° South 154 177 8,000  Level Jacksonville Center
Fri 01:28:10 PM 31.2850 -87.3361 208° Southwest 154 177 8,000 -30 Level Jacksonville Center
Fri 01:30:30 PM 31.1992 -87.3900 243° Southwest 155 178 7,900 -30 Descending Houston Center
Fri 01:31:30 PM 31.1794 -87.4344 247° West 155 178 7,900 50 Level Houston Center
Fri 01:32:30 PM 31.1622 -87.4814 234° Southwest 155 178 8,000  Climbing Houston Center
Fri 01:33:30 PM 31.1364 -87.5236 211° Southwest 161 185 7,900 -50 Descending Houston Center
Fri 01:34:30 PM 31.0997 -87.5494 205° Southwest 155 178 7,900 50 Level Houston Center
Fri 01:35:30 PM 31.0608 -87.5703 201° Southwest 155 178 8,000 50 Climbing Houston Center
Fri 01:36:30 PM 31.0194 -87.5889 208° Southwest 155 178 8,000  Level Houston Center
Fri 01:37:30 PM 30.9806 -87.6125 206° Southwest 160 184 8,000 -250 Level Houston Center
Fri 01:38:30 PM 30.9397 -87.6358 201° Southwest 160 184 7,500 -550 Descending Houston Center
Fri 01:39:30 PM 30.8983 -87.6544 202° Southwest 160 184 6,900 -750 Descending Houston Center
Fri 01:40:30 PM 30.8594 -87.6728 197° South 160 184 6,000 -797 Descending Houston Center
Fri 01:41:53 PM 30.7981 -87.6953 177° South 140 161 5,000 -417 Descending Jacksonville Center
Fri 01:42:54 PM 30.7606 -87.6933 137° Southeast 134 154 5,000 -49 Level Jacksonville Center
Fri 01:43:55 PM 30.7325 -87.6628 131° Southeast 145 167 4,900 -344 Descending Jacksonville Center
Fri 01:44:56 PM 30.7047 -87.6253 156° South 157 181 4,300 -443 Descending Jacksonville Center
Fri 01:45:57 PM 30.6636 -87.6039 150° Southeast 146 168 4,000 -148 Descending Jacksonville Center
Fri 01:46:58 PM 30.6292 -87.5806 159° South 144 166 4,000  Level Jacksonville Center
Fri 01:47:58 PM 30.5922 -87.5642 163° South 143 165 4,000 -47 Level Jacksonville Center
Fri 01:49:05 PM 30.5467 -87.5475 163° South 148 170 3,900  Descending Jacksonville Center
Fri 01:50:06 PM 30.5075 -87.5336 169° South 148 170 4,000 49 Climbing Jacksonville Center
Fri 01:51:07 PM 30.4661 -87.5242 169° South 148 170 4,000 -49 Level Jacksonville Center
Fri 01:52:08 PM 30.4269 -87.5153 163° South 149 171 3,900  Descending Jacksonville Center
Fri 01:53:08 PM 30.3878 -87.5011 169° South 144 166 4,000 50 Climbing Jacksonville Center
Fri 01:54:09 PM 30.3464 -87.4919 161° South 141 162 4,000  Level Jacksonville Center
Fri 01:55:10 PM 30.3114 -87.4783 163° South 138 159 4,000 -295 Level Jacksonville Center
Fri 01:56:11 PM 30.2722 -87.4644 164° South 141 162 3,400 -639 Descending Jacksonville Center
Fri 01:57:12 PM 30.2308 -87.4503 238° Southwest 145 167 2,700 -744 Descending Jacksonville Center
Fri 01:58:12 PM 30.2153 -87.4786 339° North 162 186 1,900 -595 Descending Jacksonville Center
Fri 01:59:13 PM 30.2522 -87.4947 339° North 140 161 1,500 -246 Descending Jacksonville Center
Fri 02:00:14 PM 30.2831 -87.5083 276° West 112 129 1,400 -52 Descending Jacksonville Center
Fri 02:01:09 PM 30.2861 -87.5397 276° West 106 122 1,400  Level Jacksonville Center

Login

Don't have an account? Register now (free) for customized features, flight alerts, and more!